createdAt,value
2022-08-12T00:04:04.009Z,100633.53
2022-08-12T00:09:26.343Z,100629.81
2022-08-12T00:14:46.910Z,100630.66
2022-08-12T00:20:09.143Z,100636.47
2022-08-12T00:26:01.416Z,100634.03
2022-08-12T00:31:10.957Z,100632.56
2022-08-12T00:36:35.914Z,100629.38
2022-08-12T00:41:57.442Z,100634.34
2022-08-12T00:47:02.691Z,100634.91
2022-08-12T00:52:09.633Z,100637.16
2022-08-12T00:57:15.520Z,100634.09
2022-08-12T01:02:24.603Z,100636.47
2022-08-12T01:07:47.196Z,100629.41
2022-08-12T01:12:50.876Z,100648.91
2022-08-12T01:17:54.224Z,100641.75
2022-08-12T01:23:20.879Z,100647.56
2022-08-12T01:28:28.036Z,100649.69
2022-08-12T01:33:33.934Z,100645.78
2022-08-12T01:38:38.052Z,100639.13
2022-08-12T01:43:44.457Z,100642.66
2022-08-12T01:49:03.765Z,100638.44
2022-08-12T01:54:09.591Z,100647.09
2022-08-12T01:59:35.896Z,100641.81
2022-08-12T02:05:10.277Z,100635.50
2022-08-12T02:10:49.377Z,100631.69
2022-08-12T02:16:00.790Z,100628.25
2022-08-12T02:21:08.479Z,100627.88
2022-08-12T02:26:16.496Z,100629.84
2022-08-12T02:31:21.459Z,100621.69
2022-08-12T02:36:25.251Z,100624.19
2022-08-12T02:41:31.101Z,100623.31
2022-08-12T02:46:37.121Z,100614.31
2022-08-12T02:51:42.677Z,100619.44
2022-08-12T02:56:48.031Z,100612.53
2022-08-12T03:01:56.723Z,100618.09
2022-08-12T03:07:09.564Z,100615.72
2022-08-12T03:12:18.193Z,100622.75
2022-08-12T03:17:30.441Z,100612.63
2022-08-12T03:22:35.417Z,100608.84
2022-08-12T03:27:49.768Z,100630.13
2022-08-12T03:32:56.520Z,100635.31
2022-08-12T03:38:02.200Z,100636.38
2022-08-12T03:43:25.770Z,100632.03
2022-08-12T03:48:47.997Z,100633.25
2022-08-12T03:54:11.072Z,100633.06
2022-08-12T03:59:32.163Z,100631.16
2022-08-12T04:04:36.900Z,100636.88
2022-08-12T04:09:42.373Z,100638.53
2022-08-12T04:14:45.500Z,100629.75
2022-08-12T04:19:50.239Z,100634.81
2022-08-12T04:24:54.777Z,100629.28
2022-08-12T04:30:30.427Z,100636.28
2022-08-12T04:35:22.463Z,100645.13
2022-08-12T04:40:28.283Z,100645.84
2022-08-12T04:45:32.483Z,100642.13
2022-08-12T04:50:37.354Z,100652.00
2022-08-12T04:55:42.235Z,100643.41
2022-08-12T05:00:44.983Z,100644.66
2022-08-12T05:05:49.526Z,100651.59
2022-08-12T05:10:52.715Z,100660.06
2022-08-12T05:16:04.531Z,100651.41
2022-08-12T05:21:10.684Z,100652.16
2022-08-12T05:26:13.692Z,100656.53
2022-08-12T05:31:40.476Z,100655.03
2022-08-12T05:36:43.600Z,100650.78
2022-08-12T05:41:46.547Z,100649.66
2022-08-12T05:46:49.300Z,100652.16
2022-08-12T05:51:53.529Z,100661.97
2022-08-12T05:56:56.277Z,100675.19
2022-08-12T06:02:12.547Z,100677.34
2022-08-12T06:07:59.630Z,100687.97
2022-08-12T06:12:42.398Z,100679.31
2022-08-12T06:17:45.448Z,100680.16
2022-08-12T06:22:50.832Z,100680.03
2022-08-12T06:28:07.194Z,100680.50
2022-08-12T06:33:18.352Z,100673.63
2022-08-12T06:38:28.131Z,100678.31
2022-08-12T06:44:04.611Z,100681.91
2022-08-12T06:48:57.512Z,100676.75
2022-08-12T06:54:02.561Z,100681.22
2022-08-12T06:59:05.840Z,100674.22
2022-08-12T07:04:33.653Z,100673.19
2022-08-12T07:10:04.583Z,100671.91
2022-08-12T07:14:55.735Z,100666.75
2022-08-12T07:20:03.942Z,100665.13
2022-08-12T07:25:27.317Z,100662.41
2022-08-12T07:30:31.843Z,100659.78
2022-08-12T07:35:35.339Z,100667.16
2022-08-12T07:40:39.509Z,100660.63
2022-08-12T07:45:42.335Z,100665.47
2022-08-12T07:50:45.091Z,100671.28
2022-08-12T07:55:49.303Z,100666.28
2022-08-12T08:00:53.470Z,100669.63
2022-08-12T08:05:56.574Z,100669.28
2022-08-12T08:11:19.756Z,100671.66
2022-08-12T08:16:22.634Z,100670.09
2022-08-12T08:21:27.206Z,100663.34
2022-08-12T08:26:32.537Z,100676.41
2022-08-12T08:31:39.797Z,100672.41
2022-08-12T08:36:43.929Z,100671.50
2022-08-12T08:42:16.577Z,100662.03
2022-08-12T08:47:22.860Z,100663.41
2022-08-12T08:52:38.957Z,100667.63
2022-08-12T08:57:49.375Z,100666.63
2022-08-12T09:02:58.855Z,100666.53
2022-08-12T09:08:14.274Z,100673.81
2022-08-12T09:14:10.793Z,100668.53
2022-08-12T09:18:57.340Z,100672.09
2022-08-12T09:24:07.583Z,100659.06
2022-08-12T09:29:14.112Z,100665.84
2022-08-12T09:34:28.445Z,100657.84
2022-08-12T09:39:57.905Z,100650.25
2022-08-12T09:45:18.082Z,100636.47
2022-08-12T09:50:23.015Z,100634.41
2022-08-12T09:56:06.259Z,100626.03
2022-08-12T10:00:52.946Z,100634.53
2022-08-12T10:06:26.154Z,100619.75
2022-08-12T10:12:11.640Z,100617.66
2022-08-12T10:17:08.606Z,100601.16
2022-08-12T10:22:17.236Z,100606.31
2022-08-12T10:28:04.915Z,100596.09
2022-08-12T10:33:18.029Z,100603.88
2022-08-12T10:38:33.656Z,100594.59
2022-08-12T10:43:55.079Z,100589.69
2022-08-12T10:49:05.956Z,100592.38
2022-08-12T10:54:26.887Z,100583.03
2022-08-12T10:59:58.130Z,100565.53
2022-08-12T11:04:58.178Z,100558.75
2022-08-12T11:10:02.841Z,100560.47
2022-08-12T11:15:18.978Z,100561.81
2022-08-12T11:20:29.076Z,100564.16
2022-08-12T11:25:56.184Z,100571.16
2022-08-12T11:30:56.866Z,100555.53
2022-08-12T11:36:14.709Z,100557.97
2022-08-12T11:41:28.090Z,100561.44
2022-08-12T11:46:36.689Z,100553.72
2022-08-12T11:51:41.149Z,100549.19
2022-08-12T11:56:47.458Z,100555.34
2022-08-12T12:02:05.477Z,100538.06
2022-08-12T12:07:11.302Z,100549.78
2022-08-12T12:12:14.777Z,100538.78
2022-08-12T12:17:18.409Z,100530.28
2022-08-12T12:22:30.823Z,100523.59
2022-08-12T12:28:05.711Z,100530.16
2022-08-12T12:33:10.488Z,100520.19
2022-08-12T12:38:25.213Z,100526.31
2022-08-12T12:43:42.790Z,100523.09
2022-08-12T12:48:46.003Z,100523.41
2022-08-12T12:54:07.644Z,100518.44
2022-08-12T12:59:54.971Z,100520.78
2022-08-12T13:04:37.496Z,100513.09
2022-08-12T13:09:46.646Z,100504.44
2022-08-12T13:14:49.539Z,100507.34
2022-08-12T13:19:54.567Z,100510.00
2022-08-12T13:25:01.646Z,100500.41
2022-08-12T13:30:12.011Z,100500.13
2022-08-12T13:35:20.376Z,100488.00
2022-08-12T13:40:40.456Z,100482.19
2022-08-12T13:45:43.449Z,100482.63
2022-08-12T13:50:46.223Z,100472.63
2022-08-12T13:56:01.458Z,100473.09
2022-08-12T14:01:09.016Z,100460.81
2022-08-12T14:06:15.595Z,100454.38
2022-08-12T14:11:25.247Z,100445.81
2022-08-12T14:16:46.999Z,100437.38
2022-08-12T14:21:59.491Z,100455.13
2022-08-12T14:27:09.305Z,100455.00
2022-08-12T14:32:16.827Z,100445.28
2022-08-12T14:37:56.817Z,100433.44
2022-08-12T14:42:46.753Z,100435.03
2022-08-12T14:47:51.296Z,100425.75
2022-08-12T14:58:20.311Z,100421.19
2022-08-12T15:03:52.051Z,100417.91
2022-08-12T15:08:51.562Z,100425.50
2022-08-12T15:13:55.838Z,100419.06
2022-08-12T15:18:59.434Z,100411.47
2022-08-12T15:24:03.246Z,100410.50
2022-08-12T15:29:10.847Z,100402.75
2022-08-12T15:34:14.353Z,100393.91
2022-08-12T15:39:18.677Z,100392.88
2022-08-12T15:44:38.721Z,100394.44
2022-08-12T15:50:00.091Z,100395.47
2022-08-12T15:55:14.052Z,100379.56
2022-08-12T16:00:32.727Z,100382.44
2022-08-12T16:06:11.080Z,100371.88
2022-08-12T16:11:00.711Z,100374.88
2022-08-12T16:16:22.628Z,100365.69
2022-08-12T16:21:51.094Z,100365.84
2022-08-12T16:26:51.042Z,100371.41
2022-08-12T16:31:59.005Z,100363.66
2022-08-12T16:37:03.205Z,100368.09
2022-08-12T16:42:06.589Z,100370.81
2022-08-12T16:47:10.817Z,100362.38
2022-08-12T16:52:18.655Z,100348.50
2022-08-12T16:57:35.147Z,100342.31
2022-08-12T17:02:40.452Z,100343.91
2022-08-12T17:07:47.235Z,100337.44
2022-08-12T17:12:54.989Z,100342.03
2022-08-12T17:18:38.959Z,100340.16
2022-08-12T17:23:33.384Z,100337.88
2022-08-12T17:28:52.620Z,100340.00
2022-08-12T17:33:58.486Z,100342.44
2022-08-12T17:39:02.463Z,100337.97
2022-08-12T17:44:07.933Z,100338.59
2022-08-12T17:49:19.523Z,100341.72
2022-08-12T17:54:36.632Z,100345.28
2022-08-12T17:59:48.841Z,100336.44
2022-08-12T18:05:09.509Z,100335.75
2022-08-12T18:10:14.066Z,100342.56
2022-08-12T18:15:26.539Z,100346.31
2022-08-12T18:20:44.912Z,100344.75
2022-08-12T18:26:14.312Z,100353.03
2022-08-12T18:31:23.767Z,100352.91
2022-08-12T18:36:29.744Z,100356.78
2022-08-12T18:41:35.833Z,100367.13
2022-08-12T18:46:55.427Z,100365.38
2022-08-12T18:52:04.908Z,100374.69
2022-08-12T18:57:19.601Z,100370.53
2022-08-12T19:02:36.085Z,100374.69
2022-08-12T19:07:49.470Z,100378.97
2022-08-12T19:13:23.748Z,100379.13
2022-08-12T19:18:29.709Z,100378.84
2022-08-12T19:23:35.955Z,100380.13
2022-08-12T19:28:38.944Z,100383.44
2022-08-12T19:33:44.521Z,100382.44
2022-08-12T19:39:15.358Z,100383.19
2022-08-12T19:44:27.281Z,100385.91
2022-08-12T19:49:30.319Z,100385.75
2022-08-12T19:54:36.156Z,100385.88
2022-08-12T19:59:43.148Z,100386.88
2022-08-12T20:06:06.528Z,100391.59
2022-08-12T20:10:36.119Z,100390.75
2022-08-12T20:15:44.501Z,100387.56
2022-08-12T20:20:48.381Z,100388.88
2022-08-12T20:26:01.932Z,100379.16
2022-08-12T20:31:11.845Z,100381.88
2022-08-12T20:36:42.519Z,100379.00
2022-08-12T20:41:43.028Z,100383.44
2022-08-12T20:46:46.227Z,100389.91
2022-08-12T20:51:55.258Z,100380.72
2022-08-12T20:57:00.845Z,100381.75
2022-08-12T21:02:04.924Z,100398.06
2022-08-12T21:07:10.346Z,100391.03
2022-08-12T21:12:27.796Z,100391.31
2022-08-12T21:17:33.988Z,100391.44
2022-08-12T21:22:56.252Z,100387.19
2022-08-12T21:28:06.728Z,100388.88
2022-08-12T21:33:10.793Z,100394.31
2022-08-12T21:38:17.851Z,100389.88
2022-08-12T21:43:23.060Z,100390.44
2022-08-12T21:48:26.205Z,100384.88
2022-08-12T21:53:31.599Z,100386.59
2022-08-12T21:58:53.806Z,100389.91
2022-08-12T22:04:28.844Z,100395.88
2022-08-12T22:09:43.310Z,100396.31
2022-08-12T22:14:47.975Z,100400.47
2022-08-12T22:19:50.782Z,100401.47
2022-08-12T22:24:58.465Z,100400.78
2022-08-12T22:30:20.296Z,100399.88
2022-08-12T22:35:55.533Z,100399.75
2022-08-12T22:40:58.342Z,100391.59
2022-08-12T22:46:23.221Z,100393.31
2022-08-12T22:51:57.468Z,100387.88
2022-08-12T22:56:54.974Z,100386.59
2022-08-12T23:02:01.771Z,100389.59
2022-08-12T23:07:07.293Z,100389.03
2022-08-12T23:12:10.499Z,100384.16
2022-08-12T23:17:41.237Z,100379.84
2022-08-12T23:23:02.663Z,100381.88
2022-08-12T23:28:29.716Z,100373.88
2022-08-12T23:34:01.875Z,100375.59
2022-08-12T23:39:02.020Z,100376.84
2022-08-12T23:44:07.024Z,100375.41
2022-08-12T23:49:55.379Z,100376.56
2022-08-12T23:54:44.093Z,100373.28
2022-08-12T23:59:55.367Z,100376.00
